Apolo, Bolivia
Current Conditions -  °F | °C
As of 10:00 PM on Saturday 22 Nov 2014 (Local Time) from SPJL Reporting Station
Overcast Overcast  
Wind Chill: 50°   Ceiling: 7000
Heat Index: 50°   Visibility: 6mi
Dew Point: 45°   Wind: 9mph
Humidity: 82%   Direction: 270°W
Pressure: 30.62"   Gusts: NA
Location:  14.72°S, 68.51°W
Report Text: SPJL 230200Z 27008KT 9999 SCT010 OVC070 10/07 Q1037 RMK PP000
Loading
Personal Weather Stations






























Interactive Weather Map New forecast layout! Learn more

10-Day Weather Forecast

Advertisements
Track Severe Weather on mobile